SAZB/BHI METAR and TAF weather

Enter ICAO airport designator
Station Type Date Time Source
SAZB METAR 2020/09/09 04:20 UTC NOAA

SAZB 090420Z 18004KT 8000 RA BKN030 OVC040 12/10 Q1016


Station Type Date Time Source
SAZB Decoded METAR 2020/09/09 04:20 UTC NOAA

Bahia Blanca Aerodrome, Argentina (SAZB) 38-44S 062-10W 83M
Sep 09, 2020 - 12:20 AM EDT / 2020.09.09 0420 UTC
Wind: from the S (180 degrees) at 5 MPH (4 KT):0
Visibility: 4 mile(s):0
Sky conditions: overcast
Weather: rain
Temperature: 53 F (12 C)
Dew Point: 50 F (10 C)
Relative Humidity: 87%
Pressure (altimeter): 30.00 in. Hg (1016 hPa)
ob: SAZB 090420Z 18004KT 8000 RA BKN030 OVC040 12/10 Q1016
cycle: 4

Station Type Date Time Source
SAZB TAF 2020/06/26 12:09 UTC NOAA

TAF SAZB 261100Z 2612/2712 27005KT CAVOK TX08/2618Z TN03/2710Z
BECMG 2700/2702 9999 SCT040
BECMG 2702/2704 7000 RA SCT010 OVC030

Example: see airport list